sensor_id;sensor_type;location;lat;lon;timestamp;P1;durP1;ratioP1;P2;durP2;ratioP2
75655;SDS011;64252;51.094;13.714;2022-11-06T00:01:39;19.40;;;7.00;;
75655;SDS011;64252;51.094;13.714;2022-11-06T00:04:05;22.40;;;7.97;;
75655;SDS011;64252;51.094;13.714;2022-11-06T00:06:32;26.67;;;7.25;;
75655;SDS011;64252;51.094;13.714;2022-11-06T00:09:14;29.15;;;7.90;;
75655;SDS011;64252;51.094;13.714;2022-11-06T00:11:42;19.55;;;6.72;;
75655;SDS011;64252;51.094;13.714;2022-11-06T00:14:08;23.58;;;7.47;;
75655;SDS011;64252;51.094;13.714;2022-11-06T00:16:35;31.48;;;8.00;;
75655;SDS011;64252;51.094;13.714;2022-11-06T00:19:02;21.00;;;6.72;;
75655;SDS011;64252;51.094;13.714;2022-11-06T00:21:28;22.55;;;7.40;;
75655;SDS011;64252;51.094;13.714;2022-11-06T00:23:55;17.58;;;7.68;;
75655;SDS011;64252;51.094;13.714;2022-11-06T00:26:23;16.63;;;7.07;;
75655;SDS011;64252;51.094;13.714;2022-11-06T00:28:50;18.15;;;6.88;;
75655;SDS011;64252;51.094;13.714;2022-11-06T00:31:17;16.85;;;7.82;;
75655;SDS011;64252;51.094;13.714;2022-11-06T00:33:45;21.75;;;7.55;;
75655;SDS011;64252;51.094;13.714;2022-11-06T00:36:13;21.27;;;7.72;;
75655;SDS011;64252;51.094;13.714;2022-11-06T00:38:40;19.27;;;7.13;;
75655;SDS011;64252;51.094;13.714;2022-11-06T00:41:07;20.10;;;6.63;;
75655;SDS011;64252;51.094;13.714;2022-11-06T00:43:34;20.42;;;6.88;;
75655;SDS011;64252;51.094;13.714;2022-11-06T00:46:01;30.58;;;6.55;;
75655;SDS011;64252;51.094;13.714;2022-11-06T00:48:28;40.53;;;6.90;;
75655;SDS011;64252;51.094;13.714;2022-11-06T00:50:54;21.60;;;6.40;;
75655;SDS011;64252;51.094;13.714;2022-11-06T00:53:19;20.23;;;6.60;;
75655;SDS011;64252;51.094;13.714;2022-11-06T00:55:46;22.52;;;7.15;;
75655;SDS011;64252;51.094;13.714;2022-11-06T00:58:11;19.67;;;7.05;;
75655;SDS011;64252;51.094;13.714;2022-11-06T01:00:37;38.13;;;7.55;;
75655;SDS011;64252;51.094;13.714;2022-11-06T01:03:02;15.85;;;6.90;;
75655;SDS011;64252;51.094;13.714;2022-11-06T01:05:27;21.95;;;6.40;;
75655;SDS011;64252;51.094;13.714;2022-11-06T01:07:53;16.98;;;5.85;;
75655;SDS011;64252;51.094;13.714;2022-11-06T01:10:18;19.70;;;7.78;;
75655;SDS011;64252;51.094;13.714;2022-11-06T01:12:44;16.73;;;6.93;;
75655;SDS011;64252;51.094;13.714;2022-11-06T01:15:09;17.42;;;6.97;;
75655;SDS011;64252;51.094;13.714;2022-11-06T01:17:35;14.32;;;6.50;;
75655;SDS011;64252;51.094;13.714;2022-11-06T01:20:02;15.10;;;6.65;;
75655;SDS011;64252;51.094;13.714;2022-11-06T01:22:28;15.35;;;6.07;;
75655;SDS011;64252;51.094;13.714;2022-11-06T01:24:54;21.10;;;6.15;;
75655;SDS011;64252;51.094;13.714;2022-11-06T01:27:19;19.88;;;6.50;;
75655;SDS011;64252;51.094;13.714;2022-11-06T01:29:45;16.38;;;6.30;;
75655;SDS011;64252;51.094;13.714;2022-11-06T01:32:10;12.70;;;6.32;;
75655;SDS011;64252;51.094;13.714;2022-11-06T01:34:36;17.98;;;6.50;;
75655;SDS011;64252;51.094;13.714;2022-11-06T01:37:01;16.08;;;5.68;;
75655;SDS011;64252;51.094;13.714;2022-11-06T01:39:27;17.95;;;7.00;;
75655;SDS011;64252;51.094;13.714;2022-11-06T01:41:52;16.67;;;7.60;;
75655;SDS011;64252;51.094;13.714;2022-11-06T01:46:56;16.13;;;6.30;;
75655;SDS011;64252;51.094;13.714;2022-11-06T01:49:22;15.30;;;5.95;;
75655;SDS011;64252;51.094;13.714;2022-11-06T01:51:55;12.77;;;5.43;;
75655;SDS011;64252;51.094;13.714;2022-11-06T01:54:24;15.20;;;6.38;;
75655;SDS011;64252;51.094;13.714;2022-11-06T01:56:53;16.30;;;6.25;;
75655;SDS011;64252;51.094;13.714;2022-11-06T01:59:22;11.98;;;6.10;;
75655;SDS011;64252;51.094;13.714;2022-11-06T02:01:50;13.80;;;6.05;;
75655;SDS011;64252;51.094;13.714;2022-11-06T02:07:01;14.80;;;6.13;;
75655;SDS011;64252;51.094;13.714;2022-11-06T02:09:27;12.82;;;6.32;;
75655;SDS011;64252;51.094;13.714;2022-11-06T02:12:10;17.95;;;7.63;;
75655;SDS011;64252;51.094;13.714;2022-11-06T02:15:15;16.67;;;7.30;;
75655;SDS011;64252;51.094;13.714;2022-11-06T02:20:26;13.30;;;5.63;;
75655;SDS011;64252;51.094;13.714;2022-11-06T02:25:47;16.20;;;6.00;;
75655;SDS011;64252;51.094;13.714;2022-11-06T02:28:20;17.17;;;7.10;;
75655;SDS011;64252;51.094;13.714;2022-11-06T02:30:49;19.50;;;6.50;;
75655;SDS011;64252;51.094;13.714;2022-11-06T02:33:22;14.20;;;6.47;;
75655;SDS011;64252;51.094;13.714;2022-11-06T02:36:06;14.55;;;6.40;;
75655;SDS011;64252;51.094;13.714;2022-11-06T02:38:39;13.93;;;6.20;;
75655;SDS011;64252;51.094;13.714;2022-11-06T02:41:15;14.45;;;6.28;;
75655;SDS011;64252;51.094;13.714;2022-11-06T02:43:46;16.52;;;6.60;;
75655;SDS011;64252;51.094;13.714;2022-11-06T02:46:20;15.90;;;6.32;;
75655;SDS011;64252;51.094;13.714;2022-11-06T02:48:52;14.02;;;5.65;;
75655;SDS011;64252;51.094;13.714;2022-11-06T02:51:41;13.45;;;4.95;;
75655;SDS011;64252;51.094;13.714;2022-11-06T02:54:10;17.40;;;6.32;;
75655;SDS011;64252;51.094;13.714;2022-11-06T02:56:41;14.98;;;5.97;;
75655;SDS011;64252;51.094;13.714;2022-11-06T02:59:11;18.55;;;6.85;;
75655;SDS011;64252;51.094;13.714;2022-11-06T03:01:42;13.43;;;5.60;;
75655;SDS011;64252;51.094;13.714;2022-11-06T03:04:32;16.38;;;6.75;;
75655;SDS011;64252;51.094;13.714;2022-11-06T03:07:07;13.35;;;5.88;;
75655;SDS011;64252;51.094;13.714;2022-11-06T03:09:36;15.98;;;6.18;;
75655;SDS011;64252;51.094;13.714;2022-11-06T03:12:07;13.48;;;4.72;;
75655;SDS011;64252;51.094;13.714;2022-11-06T03:14:39;13.55;;;6.13;;
75655;SDS011;64252;51.094;13.714;2022-11-06T03:17:14;17.58;;;6.07;;
75655;SDS011;64252;51.094;13.714;2022-11-06T03:20:00;11.40;;;5.53;;
75655;SDS011;64252;51.094;13.714;2022-11-06T03:22:46;13.98;;;5.63;;
75655;SDS011;64252;51.094;13.714;2022-11-06T03:25:23;16.33;;;6.20;;
75655;SDS011;64252;51.094;13.714;2022-11-06T03:30:25;12.43;;;4.82;;
75655;SDS011;64252;51.094;13.714;2022-11-06T03:38:27;15.13;;;4.93;;
75655;SDS011;64252;51.094;13.714;2022-11-06T03:41:02;19.45;;;5.30;;
75655;SDS011;64252;51.094;13.714;2022-11-06T03:43:34;16.40;;;5.90;;
75655;SDS011;64252;51.094;13.714;2022-11-06T03:46:04;13.00;;;5.68;;
75655;SDS011;64252;51.094;13.714;2022-11-06T03:48:37;10.88;;;5.03;;
75655;SDS011;64252;51.094;13.714;2022-11-06T03:51:13;14.68;;;5.85;;
75655;SDS011;64252;51.094;13.714;2022-11-06T03:53:50;14.93;;;5.68;;
75655;SDS011;64252;51.094;13.714;2022-11-06T03:56:21;11.88;;;5.65;;
75655;SDS011;64252;51.094;13.714;2022-11-06T03:58:52;15.50;;;5.18;;
75655;SDS011;64252;51.094;13.714;2022-11-06T04:01:23;14.10;;;5.40;;
75655;SDS011;64252;51.094;13.714;2022-11-06T04:06:24;14.60;;;5.88;;
75655;SDS011;64252;51.094;13.714;2022-11-06T04:09:05;18.40;;;6.07;;
75655;SDS011;64252;51.094;13.714;2022-11-06T04:11:51;16.67;;;5.60;;
75655;SDS011;64252;51.094;13.714;2022-11-06T04:14:37;16.85;;;5.82;;
75655;SDS011;64252;51.094;13.714;2022-11-06T04:19:34;13.15;;;6.15;;
75655;SDS011;64252;51.094;13.714;2022-11-06T04:30:17;13.05;;;4.85;;
75655;SDS011;64252;51.094;13.714;2022-11-06T04:38:59;16.40;;;6.35;;
75655;SDS011;64252;51.094;13.714;2022-11-06T04:41:48;15.13;;;5.05;;
75655;SDS011;64252;51.094;13.714;2022-11-06T04:44:31;17.23;;;5.95;;
75655;SDS011;64252;51.094;13.714;2022-11-06T04:47:01;13.48;;;5.57;;
75655;SDS011;64252;51.094;13.714;2022-11-06T04:49:30;19.77;;;6.45;;
75655;SDS011;64252;51.094;13.714;2022-11-06T04:52:00;12.18;;;5.60;;
75655;SDS011;64252;51.094;13.714;2022-11-06T04:54:28;20.42;;;6.55;;
75655;SDS011;64252;51.094;13.714;2022-11-06T04:57:01;15.30;;;5.82;;
75655;SDS011;64252;51.094;13.714;2022-11-06T04:59:26;19.33;;;6.80;;
75655;SDS011;64252;51.094;13.714;2022-11-06T05:01:55;16.70;;;6.13;;
75655;SDS011;64252;51.094;13.714;2022-11-06T05:04:21;18.73;;;7.03;;
75655;SDS011;64252;51.094;13.714;2022-11-06T05:06:46;16.33;;;5.47;;
75655;SDS011;64252;51.094;13.714;2022-11-06T05:09:12;14.85;;;5.78;;
75655;SDS011;64252;51.094;13.714;2022-11-06T05:11:37;16.90;;;6.65;;
75655;SDS011;64252;51.094;13.714;2022-11-06T05:14:03;17.60;;;5.75;;
75655;SDS011;64252;51.094;13.714;2022-11-06T05:16:28;14.70;;;6.47;;
75655;SDS011;64252;51.094;13.714;2022-11-06T05:18:54;20.15;;;7.07;;
75655;SDS011;64252;51.094;13.714;2022-11-06T05:21:19;20.85;;;6.53;;
75655;SDS011;64252;51.094;13.714;2022-11-06T05:24:03;16.42;;;6.70;;
75655;SDS011;64252;51.094;13.714;2022-11-06T05:26:30;13.85;;;6.35;;
75655;SDS011;64252;51.094;13.714;2022-11-06T05:28:55;16.38;;;6.70;;
75655;SDS011;64252;51.094;13.714;2022-11-06T05:31:21;17.58;;;6.60;;
75655;SDS011;64252;51.094;13.714;2022-11-06T05:33:46;12.00;;;6.00;;
75655;SDS011;64252;51.094;13.714;2022-11-06T05:36:12;12.77;;;5.15;;
75655;SDS011;64252;51.094;13.714;2022-11-06T05:38:37;11.65;;;4.88;;
75655;SDS011;64252;51.094;13.714;2022-11-06T05:41:03;14.40;;;6.53;;
75655;SDS011;64252;51.094;13.714;2022-11-06T05:43:28;14.40;;;5.63;;
75655;SDS011;64252;51.094;13.714;2022-11-06T05:45:54;12.20;;;4.82;;
75655;SDS011;64252;51.094;13.714;2022-11-06T05:48:19;18.17;;;6.13;;
75655;SDS011;64252;51.094;13.714;2022-11-06T05:50:45;13.07;;;5.78;;
75655;SDS011;64252;51.094;13.714;2022-11-06T05:53:13;14.50;;;5.88;;
75655;SDS011;64252;51.094;13.714;2022-11-06T05:55:39;13.02;;;5.65;;
75655;SDS011;64252;51.094;13.714;2022-11-06T05:58:04;12.60;;;5.97;;
75655;SDS011;64252;51.094;13.714;2022-11-06T06:00:30;17.48;;;5.05;;
75655;SDS011;64252;51.094;13.714;2022-11-06T06:02:56;15.55;;;5.82;;
75655;SDS011;64252;51.094;13.714;2022-11-06T06:05:22;16.17;;;5.53;;
75655;SDS011;64252;51.094;13.714;2022-11-06T06:07:47;14.63;;;5.80;;
75655;SDS011;64252;51.094;13.714;2022-11-06T06:10:13;15.45;;;5.82;;
75655;SDS011;64252;51.094;13.714;2022-11-06T06:12:38;15.50;;;5.32;;
75655;SDS011;64252;51.094;13.714;2022-11-06T06:15:05;12.55;;;5.03;;
75655;SDS011;64252;51.094;13.714;2022-11-06T06:17:31;14.68;;;6.15;;
75655;SDS011;64252;51.094;13.714;2022-11-06T06:19:57;19.80;;;6.10;;
75655;SDS011;64252;51.094;13.714;2022-11-06T06:22:22;12.10;;;5.47;;
75655;SDS011;64252;51.094;13.714;2022-11-06T06:24:48;17.55;;;6.30;;
75655;SDS011;64252;51.094;13.714;2022-11-06T06:27:14;15.73;;;6.00;;
75655;SDS011;64252;51.094;13.714;2022-11-06T06:29:39;15.80;;;6.18;;
75655;SDS011;64252;51.094;13.714;2022-11-06T06:32:05;15.18;;;6.03;;
75655;SDS011;64252;51.094;13.714;2022-11-06T06:34:30;15.43;;;6.60;;
75655;SDS011;64252;51.094;13.714;2022-11-06T06:36:56;17.05;;;6.15;;
75655;SDS011;64252;51.094;13.714;2022-11-06T06:39:21;16.02;;;6.47;;
75655;SDS011;64252;51.094;13.714;2022-11-06T06:41:47;21.38;;;6.72;;
75655;SDS011;64252;51.094;13.714;2022-11-06T06:44:12;20.10;;;5.40;;
75655;SDS011;64252;51.094;13.714;2022-11-06T06:46:39;18.25;;;7.95;;
75655;SDS011;64252;51.094;13.714;2022-11-06T06:49:05;18.83;;;8.43;;
75655;SDS011;64252;51.094;13.714;2022-11-06T06:51:31;20.63;;;9.32;;
75655;SDS011;64252;51.094;13.714;2022-11-06T06:53:57;21.35;;;8.82;;
75655;SDS011;64252;51.094;13.714;2022-11-06T06:56:22;24.67;;;8.55;;
75655;SDS011;64252;51.094;13.714;2022-11-06T06:58:48;21.15;;;8.25;;
75655;SDS011;64252;51.094;13.714;2022-11-06T07:01:17;18.73;;;7.75;;
75655;SDS011;64252;51.094;13.714;2022-11-06T07:03:42;18.77;;;7.97;;
75655;SDS011;64252;51.094;13.714;2022-11-06T07:06:08;23.05;;;8.65;;
75655;SDS011;64252;51.094;13.714;2022-11-06T07:08:33;18.90;;;7.93;;
75655;SDS011;64252;51.094;13.714;2022-11-06T07:11:03;24.13;;;9.38;;
75655;SDS011;64252;51.094;13.714;2022-11-06T07:13:31;21.83;;;8.48;;
75655;SDS011;64252;51.094;13.714;2022-11-06T07:15:56;21.60;;;9.02;;
75655;SDS011;64252;51.094;13.714;2022-11-06T07:18:22;20.52;;;8.43;;
75655;SDS011;64252;51.094;13.714;2022-11-06T07:20:49;25.60;;;9.70;;
75655;SDS011;64252;51.094;13.714;2022-11-06T07:23:15;25.30;;;8.90;;
75655;SDS011;64252;51.094;13.714;2022-11-06T07:25:40;26.05;;;9.18;;
75655;SDS011;64252;51.094;13.714;2022-11-06T07:28:06;23.60;;;8.60;;
75655;SDS011;64252;51.094;13.714;2022-11-06T07:30:33;19.23;;;8.93;;
75655;SDS011;64252;51.094;13.714;2022-11-06T07:33:03;22.95;;;8.95;;
75655;SDS011;64252;51.094;13.714;2022-11-06T07:35:30;21.92;;;9.15;;
75655;SDS011;64252;51.094;13.714;2022-11-06T07:37:58;24.55;;;9.80;;
75655;SDS011;64252;51.094;13.714;2022-11-06T07:40:27;24.65;;;9.18;;
75655;SDS011;64252;51.094;13.714;2022-11-06T07:42:53;21.13;;;9.18;;
75655;SDS011;64252;51.094;13.714;2022-11-06T07:45:18;18.13;;;9.43;;
75655;SDS011;64252;51.094;13.714;2022-11-06T07:47:44;16.50;;;8.68;;
75655;SDS011;64252;51.094;13.714;2022-11-06T07:50:09;19.95;;;9.18;;
75655;SDS011;64252;51.094;13.714;2022-11-06T07:52:35;25.95;;;10.52;;
75655;SDS011;64252;51.094;13.714;2022-11-06T07:55:00;23.08;;;9.75;;
75655;SDS011;64252;51.094;13.714;2022-11-06T07:57:26;25.05;;;10.20;;
75655;SDS011;64252;51.094;13.714;2022-11-06T07:59:52;24.48;;;10.30;;
75655;SDS011;64252;51.094;13.714;2022-11-06T08:02:17;24.85;;;9.38;;
75655;SDS011;64252;51.094;13.714;2022-11-06T08:04:46;26.45;;;11.02;;
75655;SDS011;64252;51.094;13.714;2022-11-06T08:07:11;21.83;;;8.15;;
75655;SDS011;64252;51.094;13.714;2022-11-06T08:09:37;22.77;;;9.05;;
75655;SDS011;64252;51.094;13.714;2022-11-06T08:12:02;20.88;;;10.15;;
75655;SDS011;64252;51.094;13.714;2022-11-06T08:14:28;17.67;;;9.15;;
75655;SDS011;64252;51.094;13.714;2022-11-06T08:16:53;20.30;;;8.90;;
75655;SDS011;64252;51.094;13.714;2022-11-06T08:19:21;20.88;;;9.82;;
75655;SDS011;64252;51.094;13.714;2022-11-06T08:21:46;22.70;;;10.18;;
75655;SDS011;64252;51.094;13.714;2022-11-06T08:24:18;20.40;;;9.20;;
75655;SDS011;64252;51.094;13.714;2022-11-06T08:27:02;19.00;;;8.95;;
75655;SDS011;64252;51.094;13.714;2022-11-06T08:29:28;20.88;;;9.75;;
75655;SDS011;64252;51.094;13.714;2022-11-06T08:31:53;18.25;;;8.73;;
75655;SDS011;64252;51.094;13.714;2022-11-06T08:34:19;21.25;;;9.93;;
75655;SDS011;64252;51.094;13.714;2022-11-06T08:36:44;20.65;;;10.07;;
75655;SDS011;64252;51.094;13.714;2022-11-06T08:39:10;17.23;;;8.48;;
75655;SDS011;64252;51.094;13.714;2022-11-06T08:41:37;17.30;;;8.63;;
75655;SDS011;64252;51.094;13.714;2022-11-06T08:44:06;20.83;;;8.20;;
75655;SDS011;64252;51.094;13.714;2022-11-06T08:46:31;16.52;;;8.32;;
75655;SDS011;64252;51.094;13.714;2022-11-06T08:48:57;18.35;;;8.82;;
75655;SDS011;64252;51.094;13.714;2022-11-06T08:51:22;18.92;;;8.95;;
75655;SDS011;64252;51.094;13.714;2022-11-06T08:53:48;18.02;;;9.73;;
75655;SDS011;64252;51.094;13.714;2022-11-06T08:56:14;16.80;;;8.93;;
75655;SDS011;64252;51.094;13.714;2022-11-06T08:58:40;14.45;;;7.75;;
75655;SDS011;64252;51.094;13.714;2022-11-06T09:01:07;15.43;;;8.27;;
75655;SDS011;64252;51.094;13.714;2022-11-06T09:03:32;16.65;;;8.48;;
75655;SDS011;64252;51.094;13.714;2022-11-06T09:05:58;15.15;;;8.35;;
75655;SDS011;64252;51.094;13.714;2022-11-06T09:08:23;14.77;;;8.10;;
75655;SDS011;64252;51.094;13.714;2022-11-06T09:10:49;18.65;;;8.60;;
75655;SDS011;64252;51.094;13.714;2022-11-06T09:13:15;14.27;;;7.57;;
75655;SDS011;64252;51.094;13.714;2022-11-06T09:15:40;13.02;;;7.05;;
75655;SDS011;64252;51.094;13.714;2022-11-06T09:18:06;12.88;;;7.20;;
75655;SDS011;64252;51.094;13.714;2022-11-06T09:20:34;14.38;;;7.90;;
75655;SDS011;64252;51.094;13.714;2022-11-06T09:23:00;13.93;;;7.15;;
75655;SDS011;64252;51.094;13.714;2022-11-06T09:25:28;15.90;;;8.02;;
75655;SDS011;64252;51.094;13.714;2022-11-06T09:27:54;14.65;;;8.05;;
75655;SDS011;64252;51.094;13.714;2022-11-06T09:30:20;14.07;;;6.95;;
75655;SDS011;64252;51.094;13.714;2022-11-06T09:32:49;13.68;;;6.78;;
75655;SDS011;64252;51.094;13.714;2022-11-06T09:35:16;13.38;;;7.03;;
75655;SDS011;64252;51.094;13.714;2022-11-06T09:37:42;12.30;;;7.50;;
75655;SDS011;64252;51.094;13.714;2022-11-06T09:40:55;14.48;;;7.90;;
75655;SDS011;64252;51.094;13.714;2022-11-06T09:45:43;13.32;;;6.70;;
75655;SDS011;64252;51.094;13.714;2022-11-06T09:48:15;10.02;;;5.68;;
75655;SDS011;64252;51.094;13.714;2022-11-06T09:50:49;11.18;;;6.63;;
75655;SDS011;64252;51.094;13.714;2022-11-06T09:53:27;13.90;;;6.82;;
75655;SDS011;64252;51.094;13.714;2022-11-06T09:56:02;10.43;;;6.07;;
75655;SDS011;64252;51.094;13.714;2022-11-06T09:58:32;11.15;;;5.35;;
75655;SDS011;64252;51.094;13.714;2022-11-06T10:01:18;9.90;;;4.88;;
75655;SDS011;64252;51.094;13.714;2022-11-06T10:03:53;8.52;;;4.38;;
75655;SDS011;64252;51.094;13.714;2022-11-06T10:06:24;11.07;;;5.68;;
75655;SDS011;64252;51.094;13.714;2022-11-06T10:08:52;12.95;;;6.40;;
75655;SDS011;64252;51.094;13.714;2022-11-06T10:24:22;10.07;;;5.13;;
75655;SDS011;64252;51.094;13.714;2022-11-06T10:27:05;6.80;;;4.05;;
75655;SDS011;64252;51.094;13.714;2022-11-06T10:32:29;9.10;;;4.40;;
75655;SDS011;64252;51.094;13.714;2022-11-06T10:40:30;7.55;;;4.47;;
75655;SDS011;64252;51.094;13.714;2022-11-06T10:45:43;7.45;;;4.40;;
75655;SDS011;64252;51.094;13.714;2022-11-06T10:50:56;9.18;;;3.97;;
75655;SDS011;64252;51.094;13.714;2022-11-06T10:58:46;5.80;;;3.22;;
75655;SDS011;64252;51.094;13.714;2022-11-06T11:01:13;7.45;;;3.55;;
75655;SDS011;64252;51.094;13.714;2022-11-06T11:03:40;6.53;;;3.63;;
75655;SDS011;64252;51.094;13.714;2022-11-06T11:06:07;7.05;;;3.63;;
75655;SDS011;64252;51.094;13.714;2022-11-06T11:08:34;4.70;;;2.60;;
75655;SDS011;64252;51.094;13.714;2022-11-06T11:13:38;6.53;;;2.88;;
75655;SDS011;64252;51.094;13.714;2022-11-06T11:16:09;6.70;;;2.65;;
75655;SDS011;64252;51.094;13.714;2022-11-06T11:18:43;4.97;;;2.40;;
75655;SDS011;64252;51.094;13.714;2022-11-06T11:23:37;5.90;;;2.47;;
75655;SDS011;64252;51.094;13.714;2022-11-06T11:26:22;5.43;;;2.42;;
75655;SDS011;64252;51.094;13.714;2022-11-06T11:28:53;5.57;;;2.40;;
75655;SDS011;64252;51.094;13.714;2022-11-06T11:31:26;3.90;;;2.13;;
75655;SDS011;64252;51.094;13.714;2022-11-06T11:33:55;5.30;;;2.38;;
75655;SDS011;64252;51.094;13.714;2022-11-06T11:36:22;5.60;;;2.63;;
75655;SDS011;64252;51.094;13.714;2022-11-06T11:38:48;4.40;;;2.25;;
75655;SDS011;64252;51.094;13.714;2022-11-06T11:46:45;5.40;;;1.95;;
75655;SDS011;64252;51.094;13.714;2022-11-06T11:49:24;4.38;;;1.75;;
75655;SDS011;64252;51.094;13.714;2022-11-06T11:51:52;3.75;;;1.70;;
75655;SDS011;64252;51.094;13.714;2022-11-06T11:54:18;4.72;;;1.63;;
75655;SDS011;64252;51.094;13.714;2022-11-06T11:56:57;4.28;;;1.60;;
75655;SDS011;64252;51.094;13.714;2022-11-06T11:59:28;3.33;;;1.33;;
75655;SDS011;64252;51.094;13.714;2022-11-06T12:04:27;3.72;;;1.52;;
75655;SDS011;64252;51.094;13.714;2022-11-06T12:06:57;4.32;;;1.67;;
75655;SDS011;64252;51.094;13.714;2022-11-06T12:09:27;3.80;;;1.70;;
75655;SDS011;64252;51.094;13.714;2022-11-06T12:11:57;3.55;;;1.60;;
75655;SDS011;64252;51.094;13.714;2022-11-06T12:14:25;3.35;;;1.50;;
75655;SDS011;64252;51.094;13.714;2022-11-06T12:16:54;5.28;;;1.63;;
75655;SDS011;64252;51.094;13.714;2022-11-06T12:19:33;5.35;;;2.00;;
75655;SDS011;64252;51.094;13.714;2022-11-06T12:22:11;5.05;;;2.15;;
75655;SDS011;64252;51.094;13.714;2022-11-06T12:24:53;6.28;;;2.60;;
75655;SDS011;64252;51.094;13.714;2022-11-06T12:27:26;3.95;;;1.60;;
75655;SDS011;64252;51.094;13.714;2022-11-06T12:30:10;3.03;;;1.33;;
75655;SDS011;64252;51.094;13.714;2022-11-06T12:35:33;4.10;;;1.70;;
75655;SDS011;64252;51.094;13.714;2022-11-06T12:38:13;3.00;;;1.50;;
75655;SDS011;64252;51.094;13.714;2022-11-06T12:43:40;4.53;;;2.20;;
75655;SDS011;64252;51.094;13.714;2022-11-06T12:48:47;4.18;;;2.03;;
75655;SDS011;64252;51.094;13.714;2022-11-06T12:56:57;6.25;;;2.13;;
75655;SDS011;64252;51.094;13.714;2022-11-06T12:59:36;4.32;;;1.90;;
75655;SDS011;64252;51.094;13.714;2022-11-06T13:02:16;5.43;;;1.83;;
75655;SDS011;64252;51.094;13.714;2022-11-06T13:07:45;5.55;;;1.67;;
75655;SDS011;64252;51.094;13.714;2022-11-06T13:10:42;6.70;;;2.45;;
75655;SDS011;64252;51.094;13.714;2022-11-06T13:15:53;3.85;;;1.67;;
75655;SDS011;64252;51.094;13.714;2022-11-06T13:18:38;5.00;;;2.13;;
75655;SDS011;64252;51.094;13.714;2022-11-06T13:23:56;5.70;;;2.05;;
75655;SDS011;64252;51.094;13.714;2022-11-06T13:26:28;4.50;;;2.10;;
75655;SDS011;64252;51.094;13.714;2022-11-06T13:29:09;6.45;;;2.33;;
75655;SDS011;64252;51.094;13.714;2022-11-06T13:34:03;4.78;;;1.83;;
75655;SDS011;64252;51.094;13.714;2022-11-06T13:36:31;4.47;;;2.08;;
75655;SDS011;64252;51.094;13.714;2022-11-06T13:39:13;5.80;;;2.35;;
75655;SDS011;64252;51.094;13.714;2022-11-06T13:41:45;5.07;;;1.88;;
75655;SDS011;64252;51.094;13.714;2022-11-06T13:44:10;3.95;;;1.73;;
75655;SDS011;64252;51.094;13.714;2022-11-06T14:00:20;7.68;;;2.58;;
75655;SDS011;64252;51.094;13.714;2022-11-06T14:03:12;7.78;;;2.60;;
75655;SDS011;64252;51.094;13.714;2022-11-06T14:06:36;5.32;;;2.47;;
75655;SDS011;64252;51.094;13.714;2022-11-06T14:08:54;5.43;;;2.40;;
75655;SDS011;64252;51.094;13.714;2022-11-06T14:11:26;7.20;;;2.80;;
75655;SDS011;64252;51.094;13.714;2022-11-06T14:14:01;9.82;;;3.17;;
75655;SDS011;64252;51.094;13.714;2022-11-06T14:16:30;7.82;;;3.45;;
75655;SDS011;64252;51.094;13.714;2022-11-06T14:24:27;9.77;;;4.00;;
75655;SDS011;64252;51.094;13.714;2022-11-06T14:26:55;9.05;;;3.83;;
75655;SDS011;64252;51.094;13.714;2022-11-06T14:34:26;6.25;;;3.03;;
75655;SDS011;64252;51.094;13.714;2022-11-06T14:36:53;6.97;;;3.65;;
75655;SDS011;64252;51.094;13.714;2022-11-06T14:40:01;9.10;;;4.50;;
75655;SDS011;64252;51.094;13.714;2022-11-06T14:45:10;11.95;;;6.68;;
75655;SDS011;64252;51.094;13.714;2022-11-06T14:47:47;11.80;;;7.05;;
75655;SDS011;64252;51.094;13.714;2022-11-06T14:50:28;13.27;;;6.45;;
75655;SDS011;64252;51.094;13.714;2022-11-06T14:53:04;12.10;;;5.97;;
75655;SDS011;64252;51.094;13.714;2022-11-06T14:56:00;14.57;;;8.00;;
75655;SDS011;64252;51.094;13.714;2022-11-06T14:58:32;13.23;;;7.53;;
75655;SDS011;64252;51.094;13.714;2022-11-06T15:03:36;13.02;;;6.63;;
75655;SDS011;64252;51.094;13.714;2022-11-06T15:08:58;13.32;;;7.55;;
75655;SDS011;64252;51.094;13.714;2022-11-06T15:16:36;15.57;;;8.52;;
75655;SDS011;64252;51.094;13.714;2022-11-06T15:19:05;15.38;;;8.40;;
75655;SDS011;64252;51.094;13.714;2022-11-06T15:21:41;13.98;;;7.53;;
75655;SDS011;64252;51.094;13.714;2022-11-06T15:24:25;15.52;;;8.77;;
75655;SDS011;64252;51.094;13.714;2022-11-06T15:26:59;16.10;;;9.00;;
75655;SDS011;64252;51.094;13.714;2022-11-06T15:29:36;17.77;;;8.90;;
75655;SDS011;64252;51.094;13.714;2022-11-06T15:32:18;16.73;;;7.93;;
75655;SDS011;64252;51.094;13.714;2022-11-06T15:34:59;17.15;;;8.73;;
75655;SDS011;64252;51.094;13.714;2022-11-06T15:37:39;17.92;;;9.73;;
75655;SDS011;64252;51.094;13.714;2022-11-06T15:40:20;17.02;;;8.55;;
75655;SDS011;64252;51.094;13.714;2022-11-06T15:42:52;17.38;;;8.80;;
75655;SDS011;64252;51.094;13.714;2022-11-06T15:45:20;16.92;;;8.45;;
75655;SDS011;64252;51.094;13.714;2022-11-06T15:47:58;17.63;;;9.02;;
75655;SDS011;64252;51.094;13.714;2022-11-06T15:50:26;17.83;;;8.93;;
75655;SDS011;64252;51.094;13.714;2022-11-06T15:52:52;17.60;;;8.73;;
75655;SDS011;64252;51.094;13.714;2022-11-06T15:55:27;14.82;;;8.00;;
75655;SDS011;64252;51.094;13.714;2022-11-06T16:00:58;20.85;;;9.98;;
75655;SDS011;64252;51.094;13.714;2022-11-06T16:03:26;13.40;;;7.80;;
75655;SDS011;64252;51.094;13.714;2022-11-06T16:08:22;16.40;;;8.15;;
75655;SDS011;64252;51.094;13.714;2022-11-06T16:10:50;16.52;;;8.07;;
75655;SDS011;64252;51.094;13.714;2022-11-06T16:13:17;19.10;;;9.45;;
75655;SDS011;64252;51.094;13.714;2022-11-06T16:16:08;19.25;;;9.55;;
75655;SDS011;64252;51.094;13.714;2022-11-06T16:21:06;16.70;;;8.90;;
75655;SDS011;64252;51.094;13.714;2022-11-06T16:23:36;21.08;;;10.68;;
75655;SDS011;64252;51.094;13.714;2022-11-06T16:26:08;21.23;;;11.00;;
75655;SDS011;64252;51.094;13.714;2022-11-06T16:28:44;17.98;;;9.57;;
75655;SDS011;64252;51.094;13.714;2022-11-06T16:31:15;19.65;;;10.85;;
75655;SDS011;64252;51.094;13.714;2022-11-06T16:33:54;17.05;;;9.45;;
75655;SDS011;64252;51.094;13.714;2022-11-06T16:36:56;17.42;;;8.90;;
75655;SDS011;64252;51.094;13.714;2022-11-06T16:49:30;17.38;;;9.02;;
75655;SDS011;64252;51.094;13.714;2022-11-06T16:51:59;17.05;;;9.93;;
75655;SDS011;64252;51.094;13.714;2022-11-06T16:54:26;22.20;;;11.15;;
75655;SDS011;64252;51.094;13.714;2022-11-06T16:56:55;19.45;;;9.68;;
75655;SDS011;64252;51.094;13.714;2022-11-06T16:59:33;17.98;;;9.77;;
75655;SDS011;64252;51.094;13.714;2022-11-06T17:02:00;20.27;;;10.52;;
75655;SDS011;64252;51.094;13.714;2022-11-06T17:04:26;19.85;;;10.60;;
75655;SDS011;64252;51.094;13.714;2022-11-06T17:06:55;17.52;;;9.02;;
75655;SDS011;64252;51.094;13.714;2022-11-06T17:09:25;21.13;;;10.43;;
75655;SDS011;64252;51.094;13.714;2022-11-06T17:11:59;19.80;;;9.65;;
75655;SDS011;64252;51.094;13.714;2022-11-06T17:14:26;19.88;;;9.70;;
75655;SDS011;64252;51.094;13.714;2022-11-06T17:16:59;19.88;;;10.25;;
75655;SDS011;64252;51.094;13.714;2022-11-06T17:19:26;21.77;;;10.85;;
75655;SDS011;64252;51.094;13.714;2022-11-06T17:21:53;21.63;;;10.40;;
75655;SDS011;64252;51.094;13.714;2022-11-06T17:24:19;17.70;;;9.90;;
75655;SDS011;64252;51.094;13.714;2022-11-06T17:26:46;20.88;;;9.68;;
75655;SDS011;64252;51.094;13.714;2022-11-06T17:29:17;19.95;;;10.10;;